Connect with us

"U.S. Navy Turns Off Caps Lock in Official Messages"

Discussion in 'Electrical Engineering' started by [email protected], Jun 15, 2013.

Scroll to continue with content
  1. Guest

  2. Bill

    Bill Guest

    The U.S. government would do well to also get rid of acronyms and also
    update things like aviation weather reports which look like this...

    METAR KORD 041656Z 19020G26KT 6SM -SHRA BKN070 12/08 A3016 RMK
    AO2

    In the past, with slow teletype machines and everything needing to be
    printed on paper, that was necessary. But these days those abbreviations
    can all be spelled out and the communications made more understandable.

    Another dinosaur is the legal system which has yet to computerize many
    things. For example you still have to call or go in person and look at a
    printout to see what courtroom a case will be in.
     
  3. Guest

    Sure Bill.........I think that gun powder & other explosion powered weapons are antiquated, awfully noisy and messy.
    They should eliminate them all and bring out disintegrator Ray Guns like in Star Trek
    Swift, Silent and No More Bloody Messes.

    BOOWAHAHAHAHA :)

    TGITM
     
Ask a Question
Want to reply to this thread or ask your own question?
You'll need to choose a username for the site, which only take a couple of moments (here). After that, you can post your question and our members will help you out.
Electronics Point Logo
Continue to site
Quote of the day

-